PWSweather.com
Personal Weather Stations
Station Observations

AwhituWaiuku, CA 268400

Lat: -37.058, Lon: -174.6346

Elevation: 250

Station Type: Personal

http://www.weather-display.com/windy/gb/grahamsbeach.htm

High Low Average
Temperature 66.9°F19.4°C 57.3°F14.1°C 60.4°F15.8°C
Dew Point 59.0°F15.0°C 54.3°F12.4°C 56.5°F13.6°C
Winds 17.8 mph 28.6 kmh 6.5 mph 10.5 kmh 10.0 mph SE16.1 kmh SE
Wind Gusts 26.0 mph41.8 kmh 10.0 mph16.1 kmh 16.0 mph25.7 kmh
Humidity 97% 74% 87%
Pressure 29.67 in1004.7 mb 29.61 in1002.7 mb -
Precipitation 1.37 in34.8 mm - -
Hour Temp Dew Point Humidity Winds Wind Gusts Pressure Precip Precip Rate Daily Precip Total
12:00 AM 57.3°F14.1°C 56.4°F13.6°C 97% 17.8 mph ENE28.6 kmh ENE 26.0 mph41.8 kmh 29.67 in1004.7 mb 0.28 in7.1 mm 0.00 in/hr0.0 mm/hr 1.25 in31.8 mm
01:00 AM 57.3°F14.1°C 56.5°F13.6°C 97% 11.4 mph SE18.3 kmh SE 25.0 mph40.2 kmh 29.66 in1004.4 mb 0.04 in1.0 mm 0.00 in/hr0.0 mm/hr 1.29 in32.8 mm
02:00 AM 58.0°F14.4°C 56.6°F13.7°C 95% 9.9 mph S15.9 kmh S 13.0 mph20.9 kmh 29.64 in1003.7 mb 0.02 in0.5 mm 0.00 in/hr0.0 mm/hr 1.31 in33.3 mm
03:00 AM 59.0°F15.0°C 56.1°F13.4°C 90% 11.3 mph SE18.2 kmh SE 17.0 mph27.4 kmh 29.63 in1003.4 mb 0.01 in0.3 mm 0.00 in/hr0.0 mm/hr 1.32 in33.5 mm
04:00 AM 59.8°F15.4°C 55.9°F13.3°C 87% 7.3 mph SE11.7 kmh SE 14.0 mph22.5 kmh 29.61 in1002.7 mb 0.00 in0.0 mm 0.00 in/hr0.0 mm/hr 1.32 in33.5 mm
05:00 AM 60.2°F15.7°C 55.3°F12.9°C 84% 6.6 mph SE10.6 kmh SE 10.0 mph16.1 kmh 29.61 in1002.7 mb 0.00 in0.0 mm 0.00 in/hr0.0 mm/hr 1.32 in33.5 mm
06:00 AM 61.6°F16.4°C 54.3°F12.4°C 77% 8.8 mph SE14.2 kmh SE 15.0 mph24.1 kmh 29.61 in1002.7 mb 0.00 in0.0 mm 0.00 in/hr0.0 mm/hr 1.32 in33.5 mm
07:00 AM 60.4°F15.8°C 55.5°F13.1°C 84% 8.2 mph SE13.2 kmh SE 14.0 mph22.5 kmh 29.63 in1003.4 mb 0.04 in1.0 mm 0.00 in/hr0.0 mm/hr 1.37 in34.8 mm
08:00 AM 60.1°F15.6°C 56.5°F13.6°C 88% 6.5 mph SE10.5 kmh SE 11.0 mph17.7 kmh 29.64 in1003.7 mb 0.05 in1.3 mm 0.00 in/hr0.0 mm/hr 0.44 in11.2 mm
09:00 AM 62.0°F16.7°C 57.4°F14.1°C 85% 10.9 mph SSE17.5 kmh SSE 14.0 mph22.5 kmh 29.66 in1004.4 mb 0.00 in0.0 mm 0.00 in/hr0.0 mm/hr 0.44 in11.2 mm
10:00 AM 62.0°F16.7°C 59.0°F15.0°C 90% 7.4 mph S11.9 kmh S 17.0 mph27.4 kmh 29.66 in1004.4 mb 0.04 in1.0 mm 0.00 in/hr0.0 mm/hr 0.04 in1.0 mm
11:00 AM 66.9°F19.4°C 58.4°F14.7°C 74% 11.3 mph SSE18.2 kmh SSE 20.0 mph32.2 kmh 29.64 in1003.7 mb 0.00 in0.0 mm 0.00 in/hr0.0 mm/hr 0.04 in1.0 mm
12:00 PM 67.8°F19.9°C 58.8°F14.9°C 73% 7.7 mph SSE12.4 kmh SSE 14.0 mph22.5 kmh 29.64 in1003.7 mb 0.00 in0.0 mm 0.00 in/hr0.0 mm/hr 0.04 in1.0 mm
01:00 PM 71.4°F21.9°C 58.6°F14.8°C 64% 10.1 mph SE16.3 kmh SE 14.0 mph22.5 kmh 29.63 in1003.4 mb 0.00 in0.0 mm 0.00 in/hr0.0 mm/hr 0.04 in1.0 mm
02:00 PM 73.6°F23.1°C 57.5°F14.2°C 57% 16.3 mph ESE26.2 kmh ESE 23.0 mph37.0 kmh 29.63 in1003.4 mb 0.00 in0.0 mm 0.00 in/hr0.0 mm/hr 0.04 in1.0 mm
03:00 PM 73.8°F23.2°C 57.6°F14.2°C 57% 12.5 mph ESE20.1 kmh ESE 21.0 mph33.8 kmh 29.62 in1003.0 mb 0.00 in0.0 mm 0.00 in/hr0.0 mm/hr 0.04 in1.0 mm
04:00 PM 71.9°F22.2°C 59.1°F15.1°C 64% 13.2 mph SE21.2 kmh SE 20.0 mph32.2 kmh 29.62 in1003.0 mb 0.00 in0.0 mm 0.00 in/hr0.0 mm/hr 0.04 in1.0 mm
05:00 PM 71.3°F21.8°C 58.5°F14.7°C 64% 8.3 mph SE13.4 kmh SE 10.0 mph16.1 kmh 29.63 in1003.4 mb 0.00 in0.0 mm 0.00 in/hr0.0 mm/hr 0.04 in1.0 mm
06:00 PM 70.6°F21.4°C 61.1°F16.2°C 72% 9.9 mph SSE15.9 kmh SSE 18.0 mph29.0 kmh 29.63 in1003.4 mb 0.00 in0.0 mm 0.00 in/hr0.0 mm/hr 0.04 in1.0 mm
07:00 PM 69.3°F20.7°C 60.6°F15.9°C 74% 7.0 mph E11.3 kmh E 10.0 mph16.1 kmh 29.66 in1004.4 mb 0.00 in0.0 mm 0.00 in/hr0.0 mm/hr 0.04 in1.0 mm
08:00 PM 68.5°F20.3°C 61.4°F16.3°C 78% 4.4 mph ESE7.1 kmh ESE 7.0 mph11.3 kmh 29.69 in1005.4 mb 0.00 in0.0 mm 0.00 in/hr0.0 mm/hr 0.04 in1.0 mm
09:00 PM 67.8°F19.9°C 62.4°F16.9°C 83% 10.3 mph ESE16.6 kmh ESE 14.0 mph22.5 kmh 29.71 in1006.1 mb 0.00 in0.0 mm 0.00 in/hr0.0 mm/hr 0.04 in1.0 mm
10:00 PM 67.3°F19.6°C 63.3°F17.4°C 87% 7.6 mph SE12.2 kmh SE 11.0 mph17.7 kmh 29.72 in1006.4 mb 0.00 in0.0 mm 0.00 in/hr0.0 mm/hr 0.04 in1.0 mm
11:00 PM 66.6°F19.2°C 62.9°F17.2°C 88% 9.6 mph SE15.4 kmh SE 15.0 mph24.1 kmh 29.72 in1006.4 mb 0.00 in0.0 mm 0.00 in/hr0.0 mm/hr 0.04 in1.0 mm